Terminal Aerodrome Forecast
Issued by NWS

Home | Current Version | Previous Version | Graphics & Text | Print | Product List | Glossary On
Versions: 1 2 3 4 5 6 7 8 9 10 11 12 13 14 15 16 17 18
000
FTUS43 KMPX 251500 AAA
TAFRNH
TAF AMD
KRNH 251501Z 2515/2612 25006KT P6SM BKN012
      TEMPO 2515/2517 SCT012 BKN050
     FM251700 24005KT P6SM SCT020 BKN050
     FM260000 15005KT P6SM SCT040 BKN120
     FM260600 12005KT P6SM OVC100=

USA.gov is the U.S. government's official web portal to all federal, state and local government web resources and services.